sensor_id;sensor_type;location;lat;lon;timestamp;temperature;humidity
3001;DHT22;1510;51.072;6.678;2023-04-28T00:00:55;9.60;99.90
3001;DHT22;1510;51.072;6.678;2023-04-28T00:03:22;9.60;99.90
3001;DHT22;1510;51.072;6.678;2023-04-28T00:05:52;9.60;99.90
3001;DHT22;1510;51.072;6.678;2023-04-28T00:08:19;9.70;99.90
3001;DHT22;1510;51.072;6.678;2023-04-28T00:10:46;9.70;99.90
3001;DHT22;1510;51.072;6.678;2023-04-28T00:13:14;9.70;99.90
3001;DHT22;1510;51.072;6.678;2023-04-28T00:15:41;9.60;99.90
3001;DHT22;1510;51.072;6.678;2023-04-28T00:18:08;9.60;99.90
3001;DHT22;1510;51.072;6.678;2023-04-28T00:20:35;9.60;99.90
3001;DHT22;1510;51.072;6.678;2023-04-28T00:23:03;9.60;99.90
3001;DHT22;1510;51.072;6.678;2023-04-28T00:25:32;9.60;99.90
3001;DHT22;1510;51.072;6.678;2023-04-28T00:27:59;9.60;99.90
3001;DHT22;1510;51.072;6.678;2023-04-28T00:30:26;9.60;99.90
3001;DHT22;1510;51.072;6.678;2023-04-28T00:32:53;9.60;99.90
3001;DHT22;1510;51.072;6.678;2023-04-28T00:35:20;9.60;99.90
3001;DHT22;1510;51.072;6.678;2023-04-28T00:37:48;9.60;99.90
3001;DHT22;1510;51.072;6.678;2023-04-28T00:40:16;9.60;99.90
3001;DHT22;1510;51.072;6.678;2023-04-28T00:42:43;9.50;99.90
3001;DHT22;1510;51.072;6.678;2023-04-28T00:45:10;9.60;99.90
3001;DHT22;1510;51.072;6.678;2023-04-28T00:47:37;9.60;99.90
3001;DHT22;1510;51.072;6.678;2023-04-28T00:50:05;9.60;99.90
3001;DHT22;1510;51.072;6.678;2023-04-28T00:52:32;9.60;99.90
3001;DHT22;1510;51.072;6.678;2023-04-28T00:54:59;9.60;99.90
3001;DHT22;1510;51.072;6.678;2023-04-28T00:57:29;9.50;99.90
3001;DHT22;1510;51.072;6.678;2023-04-28T00:59:56;9.50;99.90
3001;DHT22;1510;51.072;6.678;2023-04-28T01:02:26;9.50;99.90
3001;DHT22;1510;51.072;6.678;2023-04-28T01:04:56;9.50;99.90
3001;DHT22;1510;51.072;6.678;2023-04-28T01:07:24;9.50;99.90
3001;DHT22;1510;51.072;6.678;2023-04-28T01:09:51;9.50;99.90
3001;DHT22;1510;51.072;6.678;2023-04-28T01:12:18;9.40;99.90
3001;DHT22;1510;51.072;6.678;2023-04-28T01:14:46;9.40;99.90
3001;DHT22;1510;51.072;6.678;2023-04-28T01:17:14;9.40;99.90
3001;DHT22;1510;51.072;6.678;2023-04-28T01:19:41;9.50;99.90
3001;DHT22;1510;51.072;6.678;2023-04-28T01:22:08;9.40;99.90
3001;DHT22;1510;51.072;6.678;2023-04-28T01:24:40;9.40;99.90
3001;DHT22;1510;51.072;6.678;2023-04-28T01:27:06;9.40;99.90
3001;DHT22;1510;51.072;6.678;2023-04-28T01:29:33;9.40;99.90
3001;DHT22;1510;51.072;6.678;2023-04-28T01:32:01;9.40;99.90
3001;DHT22;1510;51.072;6.678;2023-04-28T01:34:28;9.50;99.90
3001;DHT22;1510;51.072;6.678;2023-04-28T01:36:55;9.50;99.90
3001;DHT22;1510;51.072;6.678;2023-04-28T01:39:22;9.50;99.90
3001;DHT22;1510;51.072;6.678;2023-04-28T01:41:51;9.50;99.90
3001;DHT22;1510;51.072;6.678;2023-04-28T01:44:18;9.40;99.90
3001;DHT22;1510;51.072;6.678;2023-04-28T01:46:45;9.50;99.90
3001;DHT22;1510;51.072;6.678;2023-04-28T01:49:13;9.40;99.90
3001;DHT22;1510;51.072;6.678;2023-04-28T01:51:40;9.40;99.90
3001;DHT22;1510;51.072;6.678;2023-04-28T01:54:08;9.40;99.90
3001;DHT22;1510;51.072;6.678;2023-04-28T01:56:35;9.40;99.90
3001;DHT22;1510;51.072;6.678;2023-04-28T01:59:06;9.40;99.90
3001;DHT22;1510;51.072;6.678;2023-04-28T02:01:33;9.30;99.90
3001;DHT22;1510;51.072;6.678;2023-04-28T02:04:00;9.40;99.90
3001;DHT22;1510;51.072;6.678;2023-04-28T02:06:27;9.40;99.90
3001;DHT22;1510;51.072;6.678;2023-04-28T02:08:57;9.40;99.90
3001;DHT22;1510;51.072;6.678;2023-04-28T02:11:26;9.40;99.90
3001;DHT22;1510;51.072;6.678;2023-04-28T02:13:54;9.40;99.90
3001;DHT22;1510;51.072;6.678;2023-04-28T02:16:23;9.50;99.90
3001;DHT22;1510;51.072;6.678;2023-04-28T02:18:50;9.40;99.90
3001;DHT22;1510;51.072;6.678;2023-04-28T02:21:17;9.50;99.90
3001;DHT22;1510;51.072;6.678;2023-04-28T02:23:44;9.50;99.90
3001;DHT22;1510;51.072;6.678;2023-04-28T02:26:12;9.50;99.90
3001;DHT22;1510;51.072;6.678;2023-04-28T02:28:40;9.50;99.90
3001;DHT22;1510;51.072;6.678;2023-04-28T02:31:09;9.50;99.90
3001;DHT22;1510;51.072;6.678;2023-04-28T02:33:42;9.50;99.90
3001;DHT22;1510;51.072;6.678;2023-04-28T02:36:09;9.50;99.90
3001;DHT22;1510;51.072;6.678;2023-04-28T02:38:38;9.60;99.90
3001;DHT22;1510;51.072;6.678;2023-04-28T02:41:07;9.60;99.90
3001;DHT22;1510;51.072;6.678;2023-04-28T02:43:37;9.60;99.90
3001;DHT22;1510;51.072;6.678;2023-04-28T02:46:05;9.60;99.90
3001;DHT22;1510;51.072;6.678;2023-04-28T02:48:33;9.60;99.90
3001;DHT22;1510;51.072;6.678;2023-04-28T02:51:02;9.60;99.90
3001;DHT22;1510;51.072;6.678;2023-04-28T02:53:30;9.60;99.90
3001;DHT22;1510;51.072;6.678;2023-04-28T02:55:57;9.50;99.90
3001;DHT22;1510;51.072;6.678;2023-04-28T02:58:24;9.60;99.90
3001;DHT22;1510;51.072;6.678;2023-04-28T03:00:51;9.50;99.90
3001;DHT22;1510;51.072;6.678;2023-04-28T03:03:18;9.60;99.90
3001;DHT22;1510;51.072;6.678;2023-04-28T03:05:45;9.60;99.90
3001;DHT22;1510;51.072;6.678;2023-04-28T03:08:13;9.60;99.90
3001;DHT22;1510;51.072;6.678;2023-04-28T03:10:40;9.60;99.90
3001;DHT22;1510;51.072;6.678;2023-04-28T03:13:07;9.60;99.90
3001;DHT22;1510;51.072;6.678;2023-04-28T03:15:35;9.60;99.90
3001;DHT22;1510;51.072;6.678;2023-04-28T03:18:02;9.60;99.90
3001;DHT22;1510;51.072;6.678;2023-04-28T03:20:29;9.60;99.90
3001;DHT22;1510;51.072;6.678;2023-04-28T03:22:56;9.60;99.90
3001;DHT22;1510;51.072;6.678;2023-04-28T03:25:25;9.70;99.90
3001;DHT22;1510;51.072;6.678;2023-04-28T03:27:52;9.60;99.90
3001;DHT22;1510;51.072;6.678;2023-04-28T03:30:20;9.60;99.90
3001;DHT22;1510;51.072;6.678;2023-04-28T03:32:47;9.60;99.90
3001;DHT22;1510;51.072;6.678;2023-04-28T03:35:14;9.60;99.90
3001;DHT22;1510;51.072;6.678;2023-04-28T03:37:41;9.60;99.90
3001;DHT22;1510;51.072;6.678;2023-04-28T03:40:09;9.60;99.90
3001;DHT22;1510;51.072;6.678;2023-04-28T03:42:38;9.50;99.90
3001;DHT22;1510;51.072;6.678;2023-04-28T03:45:06;9.60;99.90
3001;DHT22;1510;51.072;6.678;2023-04-28T03:47:33;9.50;99.90
3001;DHT22;1510;51.072;6.678;2023-04-28T03:50:00;9.50;99.90
3001;DHT22;1510;51.072;6.678;2023-04-28T03:52:26;9.40;99.90
3001;DHT22;1510;51.072;6.678;2023-04-28T03:54:54;9.40;99.90
3001;DHT22;1510;51.072;6.678;2023-04-28T03:57:21;9.40;99.90
3001;DHT22;1510;51.072;6.678;2023-04-28T03:59:50;9.40;99.90
3001;DHT22;1510;51.072;6.678;2023-04-28T04:02:17;9.40;99.90
3001;DHT22;1510;51.072;6.678;2023-04-28T04:04:44;9.40;99.90
3001;DHT22;1510;51.072;6.678;2023-04-28T04:07:11;9.40;99.90
3001;DHT22;1510;51.072;6.678;2023-04-28T04:09:38;9.40;99.90
3001;DHT22;1510;51.072;6.678;2023-04-28T04:12:06;9.40;99.90
3001;DHT22;1510;51.072;6.678;2023-04-28T04:14:33;9.40;99.90
3001;DHT22;1510;51.072;6.678;2023-04-28T04:17:04;9.50;99.90
3001;DHT22;1510;51.072;6.678;2023-04-28T04:19:33;9.40;99.90
3001;DHT22;1510;51.072;6.678;2023-04-28T04:22:07;9.50;99.90
3001;DHT22;1510;51.072;6.678;2023-04-28T04:24:34;9.50;99.90
3001;DHT22;1510;51.072;6.678;2023-04-28T04:27:02;9.50;99.90
3001;DHT22;1510;51.072;6.678;2023-04-28T04:29:29;9.50;99.90
3001;DHT22;1510;51.072;6.678;2023-04-28T04:32:02;9.50;99.90
3001;DHT22;1510;51.072;6.678;2023-04-28T04:34:29;9.50;99.90
3001;DHT22;1510;51.072;6.678;2023-04-28T04:37:04;9.50;99.90
3001;DHT22;1510;51.072;6.678;2023-04-28T04:39:31;9.50;99.90
3001;DHT22;1510;51.072;6.678;2023-04-28T04:42:00;9.50;99.90
3001;DHT22;1510;51.072;6.678;2023-04-28T04:44:30;9.50;99.90
3001;DHT22;1510;51.072;6.678;2023-04-28T04:47:05;9.50;99.90
3001;DHT22;1510;51.072;6.678;2023-04-28T04:49:32;9.60;99.90
3001;DHT22;1510;51.072;6.678;2023-04-28T04:51:59;9.60;99.90
3001;DHT22;1510;51.072;6.678;2023-04-28T04:54:27;9.60;99.90
3001;DHT22;1510;51.072;6.678;2023-04-28T04:56:57;9.60;99.90
3001;DHT22;1510;51.072;6.678;2023-04-28T04:59:24;9.60;99.90
3001;DHT22;1510;51.072;6.678;2023-04-28T05:01:51;9.60;99.90
3001;DHT22;1510;51.072;6.678;2023-04-28T05:04:20;9.60;99.90
3001;DHT22;1510;51.072;6.678;2023-04-28T05:06:47;9.60;99.90
3001;DHT22;1510;51.072;6.678;2023-04-28T05:09:14;9.60;99.90
3001;DHT22;1510;51.072;6.678;2023-04-28T05:11:41;9.70;99.90
3001;DHT22;1510;51.072;6.678;2023-04-28T05:14:08;9.70;99.90
3001;DHT22;1510;51.072;6.678;2023-04-28T05:16:36;9.70;99.90
3001;DHT22;1510;51.072;6.678;2023-04-28T05:19:04;9.70;99.90
3001;DHT22;1510;51.072;6.678;2023-04-28T05:21:32;9.70;99.90
3001;DHT22;1510;51.072;6.678;2023-04-28T05:23:59;9.80;99.90
3001;DHT22;1510;51.072;6.678;2023-04-28T05:26:27;9.80;99.90
3001;DHT22;1510;51.072;6.678;2023-04-28T05:28:53;9.80;99.90
3001;DHT22;1510;51.072;6.678;2023-04-28T05:31:21;9.80;99.90
3001;DHT22;1510;51.072;6.678;2023-04-28T05:33:48;9.90;99.90
3001;DHT22;1510;51.072;6.678;2023-04-28T05:36:16;9.90;99.90
3001;DHT22;1510;51.072;6.678;2023-04-28T05:38:44;9.90;99.90
3001;DHT22;1510;51.072;6.678;2023-04-28T05:41:11;10.00;99.90
3001;DHT22;1510;51.072;6.678;2023-04-28T05:43:38;10.00;99.90
3001;DHT22;1510;51.072;6.678;2023-04-28T05:46:05;10.10;99.90
3001;DHT22;1510;51.072;6.678;2023-04-28T05:48:32;10.20;99.90
3001;DHT22;1510;51.072;6.678;2023-04-28T05:50:59;10.30;99.90
3001;DHT22;1510;51.072;6.678;2023-04-28T05:53:28;10.40;99.90
3001;DHT22;1510;51.072;6.678;2023-04-28T05:56:18;10.50;99.90
3001;DHT22;1510;51.072;6.678;2023-04-28T05:58:46;10.60;99.90
3001;DHT22;1510;51.072;6.678;2023-04-28T06:01:15;10.70;99.90
3001;DHT22;1510;51.072;6.678;2023-04-28T06:03:44;10.70;99.90
3001;DHT22;1510;51.072;6.678;2023-04-28T06:06:11;10.70;99.90
3001;DHT22;1510;51.072;6.678;2023-04-28T06:08:38;10.80;99.90
3001;DHT22;1510;51.072;6.678;2023-04-28T06:11:08;10.80;99.90
3001;DHT22;1510;51.072;6.678;2023-04-28T06:13:37;10.80;99.90
3001;DHT22;1510;51.072;6.678;2023-04-28T06:16:05;10.90;99.90
3001;DHT22;1510;51.072;6.678;2023-04-28T06:18:32;10.80;99.90
3001;DHT22;1510;51.072;6.678;2023-04-28T06:21:00;10.80;99.90
3001;DHT22;1510;51.072;6.678;2023-04-28T06:23:30;10.70;99.90
3001;DHT22;1510;51.072;6.678;2023-04-28T06:25:57;10.80;99.90
3001;DHT22;1510;51.072;6.678;2023-04-28T06:28:28;11.00;99.90
3001;DHT22;1510;51.072;6.678;2023-04-28T06:30:55;11.20;99.90
3001;DHT22;1510;51.072;6.678;2023-04-28T06:33:24;11.40;99.90
3001;DHT22;1510;51.072;6.678;2023-04-28T06:35:52;11.60;99.90
3001;DHT22;1510;51.072;6.678;2023-04-28T06:38:21;11.70;99.90
3001;DHT22;1510;51.072;6.678;2023-04-28T06:40:48;11.80;99.90
3001;DHT22;1510;51.072;6.678;2023-04-28T06:43:15;11.80;99.90
3001;DHT22;1510;51.072;6.678;2023-04-28T06:45:43;11.80;99.90
3001;DHT22;1510;51.072;6.678;2023-04-28T06:48:11;11.80;99.90
3001;DHT22;1510;51.072;6.678;2023-04-28T06:50:38;11.80;99.90
3001;DHT22;1510;51.072;6.678;2023-04-28T06:53:07;11.70;99.90
3001;DHT22;1510;51.072;6.678;2023-04-28T06:55:36;11.60;99.90
3001;DHT22;1510;51.072;6.678;2023-04-28T06:58:03;11.60;99.90
3001;DHT22;1510;51.072;6.678;2023-04-28T07:00:30;11.60;99.90
3001;DHT22;1510;51.072;6.678;2023-04-28T07:02:58;11.50;99.90
3001;DHT22;1510;51.072;6.678;2023-04-28T07:05:26;11.40;99.90
3001;DHT22;1510;51.072;6.678;2023-04-28T07:07:55;11.40;99.90
3001;DHT22;1510;51.072;6.678;2023-04-28T07:10:23;11.40;99.90
3001;DHT22;1510;51.072;6.678;2023-04-28T07:12:52;11.30;99.90
3001;DHT22;1510;51.072;6.678;2023-04-28T07:15:19;11.30;99.90
3001;DHT22;1510;51.072;6.678;2023-04-28T07:17:48;11.20;99.90
3001;DHT22;1510;51.072;6.678;2023-04-28T07:20:20;11.20;99.90
3001;DHT22;1510;51.072;6.678;2023-04-28T07:49:42;12.40;99.90
3001;DHT22;1510;51.072;6.678;2023-04-28T07:52:14;12.30;99.90
3001;DHT22;1510;51.072;6.678;2023-04-28T07:54:44;12.60;99.90
3001;DHT22;1510;51.072;6.678;2023-04-28T07:57:16;12.80;99.90
3001;DHT22;1510;51.072;6.678;2023-04-28T07:59:50;13.00;99.90
3001;DHT22;1510;51.072;6.678;2023-04-28T08:02:22;13.40;99.90
3001;DHT22;1510;51.072;6.678;2023-04-28T08:04:59;13.50;99.90
3001;DHT22;1510;51.072;6.678;2023-04-28T08:07:34;13.50;99.90
3001;DHT22;1510;51.072;6.678;2023-04-28T08:10:05;13.60;99.90
3001;DHT22;1510;51.072;6.678;2023-04-28T08:12:34;13.80;99.90
3001;DHT22;1510;51.072;6.678;2023-04-28T08:15:03;14.00;99.90
3001;DHT22;1510;51.072;6.678;2023-04-28T08:17:41;14.40;99.90
3001;DHT22;1510;51.072;6.678;2023-04-28T08:20:16;14.80;99.90
3001;DHT22;1510;51.072;6.678;2023-04-28T08:22:45;15.10;99.90
3001;DHT22;1510;51.072;6.678;2023-04-28T08:25:18;15.30;99.90
3001;DHT22;1510;51.072;6.678;2023-04-28T08:27:53;15.60;99.90
3001;DHT22;1510;51.072;6.678;2023-04-28T08:30:34;15.70;99.90
3001;DHT22;1510;51.072;6.678;2023-04-28T08:33:11;15.90;99.90
3001;DHT22;1510;51.072;6.678;2023-04-28T08:35:45;16.00;99.90
3001;DHT22;1510;51.072;6.678;2023-04-28T08:38:17;15.90;99.90
3001;DHT22;1510;51.072;6.678;2023-04-28T08:40:44;15.60;99.90
3001;DHT22;1510;51.072;6.678;2023-04-28T08:43:19;15.40;99.90
3001;DHT22;1510;51.072;6.678;2023-04-28T08:46:05;15.20;99.90
3001;DHT22;1510;51.072;6.678;2023-04-28T08:48:40;15.10;99.90
3001;DHT22;1510;51.072;6.678;2023-04-28T08:51:21;15.10;99.90
3001;DHT22;1510;51.072;6.678;2023-04-28T08:53:58;15.00;99.90
3001;DHT22;1510;51.072;6.678;2023-04-28T09:04:28;14.10;99.90
3001;DHT22;1510;51.072;6.678;2023-04-28T09:06:59;14.20;99.90
3001;DHT22;1510;51.072;6.678;2023-04-28T09:09:29;14.30;99.90
3001;DHT22;1510;51.072;6.678;2023-04-28T09:12:00;14.70;99.90
3001;DHT22;1510;51.072;6.678;2023-04-28T09:14:29;14.70;99.90
3001;DHT22;1510;51.072;6.678;2023-04-28T09:22:08;14.00;99.90
3001;DHT22;1510;51.072;6.678;2023-04-28T09:24:38;13.80;99.90
3001;DHT22;1510;51.072;6.678;2023-04-28T09:27:12;13.90;99.90
3001;DHT22;1510;51.072;6.678;2023-04-28T09:29:59;13.90;99.90
3001;DHT22;1510;51.072;6.678;2023-04-28T09:32:34;14.10;99.90
3001;DHT22;1510;51.072;6.678;2023-04-28T09:35:07;14.00;99.90
3001;DHT22;1510;51.072;6.678;2023-04-28T09:37:46;14.00;99.90
3001;DHT22;1510;51.072;6.678;2023-04-28T09:40:13;14.00;99.90
3001;DHT22;1510;51.072;6.678;2023-04-28T09:42:43;13.90;99.90
3001;DHT22;1510;51.072;6.678;2023-04-28T09:45:16;13.80;99.90
3001;DHT22;1510;51.072;6.678;2023-04-28T09:47:47;13.80;99.90
3001;DHT22;1510;51.072;6.678;2023-04-28T09:50:19;13.80;99.90
3001;DHT22;1510;51.072;6.678;2023-04-28T09:52:59;13.90;99.90
3001;DHT22;1510;51.072;6.678;2023-04-28T09:55:30;14.10;99.90
3001;DHT22;1510;51.072;6.678;2023-04-28T09:58:05;14.20;99.90
3001;DHT22;1510;51.072;6.678;2023-04-28T10:00:34;14.30;99.90
3001;DHT22;1510;51.072;6.678;2023-04-28T10:03:04;14.30;99.90
3001;DHT22;1510;51.072;6.678;2023-04-28T10:05:31;14.20;99.90
3001;DHT22;1510;51.072;6.678;2023-04-28T10:08:05;14.10;99.90
3001;DHT22;1510;51.072;6.678;2023-04-28T10:10:33;14.20;99.90
3001;DHT22;1510;51.072;6.678;2023-04-28T10:13:04;14.30;99.90
3001;DHT22;1510;51.072;6.678;2023-04-28T10:15:36;14.40;99.90
3001;DHT22;1510;51.072;6.678;2023-04-28T10:18:07;14.50;99.90
3001;DHT22;1510;51.072;6.678;2023-04-28T10:20:37;14.70;99.90
3001;DHT22;1510;51.072;6.678;2023-04-28T10:23:23;14.70;99.90
3001;DHT22;1510;51.072;6.678;2023-04-28T10:25:57;14.80;99.90
3001;DHT22;1510;51.072;6.678;2023-04-28T10:28:26;14.90;99.90
3001;DHT22;1510;51.072;6.678;2023-04-28T10:31:12;14.90;99.90
3001;DHT22;1510;51.072;6.678;2023-04-28T10:33:44;14.90;99.90
3001;DHT22;1510;51.072;6.678;2023-04-28T10:36:46;14.90;99.90
3001;DHT22;1510;51.072;6.678;2023-04-28T10:39:19;14.80;99.90
3001;DHT22;1510;51.072;6.678;2023-04-28T10:41:48;14.90;99.90
3001;DHT22;1510;51.072;6.678;2023-04-28T10:44:42;15.10;99.90
3001;DHT22;1510;51.072;6.678;2023-04-28T10:47:10;15.50;99.90
3001;DHT22;1510;51.072;6.678;2023-04-28T10:50:08;15.80;99.90
3001;DHT22;1510;51.072;6.678;2023-04-28T10:52:49;16.30;99.90
3001;DHT22;1510;51.072;6.678;2023-04-28T10:55:28;16.70;99.90
3001;DHT22;1510;51.072;6.678;2023-04-28T10:58:29;17.20;99.90
3001;DHT22;1510;51.072;6.678;2023-04-28T11:01:28;17.60;99.90
3001;DHT22;1510;51.072;6.678;2023-04-28T11:03:58;18.10;99.90
3001;DHT22;1510;51.072;6.678;2023-04-28T11:06:29;18.10;99.90
3001;DHT22;1510;51.072;6.678;2023-04-28T11:09:00;18.30;99.90
3001;DHT22;1510;51.072;6.678;2023-04-28T11:11:35;18.50;99.90
3001;DHT22;1510;51.072;6.678;2023-04-28T11:14:32;18.40;99.90
3001;DHT22;1510;51.072;6.678;2023-04-28T11:17:06;18.50;99.90
3001;DHT22;1510;51.072;6.678;2023-04-28T11:19:38;18.10;99.90
3001;DHT22;1510;51.072;6.678;2023-04-28T11:22:13;18.20;99.90
3001;DHT22;1510;51.072;6.678;2023-04-28T11:24:55;18.40;99.90
3001;DHT22;1510;51.072;6.678;2023-04-28T11:27:29;19.10;99.90
3001;DHT22;1510;51.072;6.678;2023-04-28T11:29:57;20.10;99.90
3001;DHT22;1510;51.072;6.678;2023-04-28T11:32:37;21.30;99.90
3001;DHT22;1510;51.072;6.678;2023-04-28T11:35:10;22.40;99.90
3001;DHT22;1510;51.072;6.678;2023-04-28T11:38:00;22.50;99.90
3001;DHT22;1510;51.072;6.678;2023-04-28T11:40:28;22.30;98.20
3001;DHT22;1510;51.072;6.678;2023-04-28T11:42:56;21.80;98.60
3001;DHT22;1510;51.072;6.678;2023-04-28T11:45:24;21.60;99.20
3001;DHT22;1510;51.072;6.678;2023-04-28T11:47:51;21.40;99.50
3001;DHT22;1510;51.072;6.678;2023-04-28T11:50:34;21.60;99.80
3001;DHT22;1510;51.072;6.678;2023-04-28T11:53:01;21.30;97.90
3001;DHT22;1510;51.072;6.678;2023-04-28T11:55:28;20.30;99.90
3001;DHT22;1510;51.072;6.678;2023-04-28T11:58:18;20.40;99.90
3001;DHT22;1510;51.072;6.678;2023-04-28T12:01:07;20.60;99.90
3001;DHT22;1510;51.072;6.678;2023-04-28T12:03:42;21.50;98.40
3001;DHT22;1510;51.072;6.678;2023-04-28T12:06:09;22.90;96.90
3001;DHT22;1510;51.072;6.678;2023-04-28T12:08:36;23.10;95.50
3001;DHT22;1510;51.072;6.678;2023-04-28T12:11:08;22.60;92.50
3001;DHT22;1510;51.072;6.678;2023-04-28T12:13:37;23.10;93.60
3001;DHT22;1510;51.072;6.678;2023-04-28T12:16:06;23.20;91.80
3001;DHT22;1510;51.072;6.678;2023-04-28T12:18:33;23.50;93.50
3001;DHT22;1510;51.072;6.678;2023-04-28T12:21:01;23.90;87.20
3001;DHT22;1510;51.072;6.678;2023-04-28T12:23:29;24.30;85.30
3001;DHT22;1510;51.072;6.678;2023-04-28T12:25:57;23.20;86.40
3001;DHT22;1510;51.072;6.678;2023-04-28T12:28:36;23.00;89.80
3001;DHT22;1510;51.072;6.678;2023-04-28T12:31:05;22.60;88.50
3001;DHT22;1510;51.072;6.678;2023-04-28T12:33:33;22.10;90.70
3001;DHT22;1510;51.072;6.678;2023-04-28T12:36:03;21.50;93.80
3001;DHT22;1510;51.072;6.678;2023-04-28T12:38:30;21.00;95.50
3001;DHT22;1510;51.072;6.678;2023-04-28T12:40:57;20.40;95.30
3001;DHT22;1510;51.072;6.678;2023-04-28T12:43:25;20.20;96.90
3001;DHT22;1510;51.072;6.678;2023-04-28T12:45:55;20.30;98.20
3001;DHT22;1510;51.072;6.678;2023-04-28T12:48:21;20.40;96.10
3001;DHT22;1510;51.072;6.678;2023-04-28T12:50:49;21.00;96.20
3001;DHT22;1510;51.072;6.678;2023-04-28T12:53:16;21.10;95.60
3001;DHT22;1510;51.072;6.678;2023-04-28T12:55:43;21.20;96.20
3001;DHT22;1510;51.072;6.678;2023-04-28T12:58:10;21.30;94.60
3001;DHT22;1510;51.072;6.678;2023-04-28T13:00:36;21.40;91.90
3001;DHT22;1510;51.072;6.678;2023-04-28T13:03:05;21.90;92.50
3001;DHT22;1510;51.072;6.678;2023-04-28T13:05:32;23.40;89.20
3001;DHT22;1510;51.072;6.678;2023-04-28T13:07:59;23.60;86.70
3001;DHT22;1510;51.072;6.678;2023-04-28T13:10:26;24.00;85.80
3001;DHT22;1510;51.072;6.678;2023-04-28T13:12:54;24.30;82.30
3001;DHT22;1510;51.072;6.678;2023-04-28T13:15:21;25.60;74.00
3001;DHT22;1510;51.072;6.678;2023-04-28T13:17:48;26.40;65.40
3001;DHT22;1510;51.072;6.678;2023-04-28T13:20:16;25.60;66.80
3001;DHT22;1510;51.072;6.678;2023-04-28T13:22:43;24.50;69.90
3001;DHT22;1510;51.072;6.678;2023-04-28T13:25:10;23.30;79.00
3001;DHT22;1510;51.072;6.678;2023-04-28T13:27:36;22.60;85.40
3001;DHT22;1510;51.072;6.678;2023-04-28T13:30:04;22.40;86.90
3001;DHT22;1510;51.072;6.678;2023-04-28T13:32:33;23.50;77.40
3001;DHT22;1510;51.072;6.678;2023-04-28T13:35:00;24.70;71.20
3001;DHT22;1510;51.072;6.678;2023-04-28T13:37:28;25.10;68.10
3001;DHT22;1510;51.072;6.678;2023-04-28T13:39:55;25.60;66.80
3001;DHT22;1510;51.072;6.678;2023-04-28T13:42:22;26.10;62.50
3001;DHT22;1510;51.072;6.678;2023-04-28T13:44:49;26.40;66.80
3001;DHT22;1510;51.072;6.678;2023-04-28T13:47:16;25.60;68.30
3001;DHT22;1510;51.072;6.678;2023-04-28T13:49:43;25.80;58.50
3001;DHT22;1510;51.072;6.678;2023-04-28T13:52:10;25.00;57.90
3001;DHT22;1510;51.072;6.678;2023-04-28T13:54:38;23.50;64.10
3001;DHT22;1510;51.072;6.678;2023-04-28T13:57:05;23.10;68.40
3001;DHT22;1510;51.072;6.678;2023-04-28T13:59:33;23.70;61.00
3001;DHT22;1510;51.072;6.678;2023-04-28T14:01:59;23.80;60.00
3001;DHT22;1510;51.072;6.678;2023-04-28T14:04:26;22.80;64.40
3001;DHT22;1510;51.072;6.678;2023-04-28T14:06:53;23.00;65.00
3001;DHT22;1510;51.072;6.678;2023-04-28T14:09:20;23.00;68.60
3001;DHT22;1510;51.072;6.678;2023-04-28T14:11:48;22.10;72.10
3001;DHT22;1510;51.072;6.678;2023-04-28T14:14:15;21.90;71.80
3001;DHT22;1510;51.072;6.678;2023-04-28T14:16:42;21.60;71.60
3001;DHT22;1510;51.072;6.678;2023-04-28T14:19:09;21.40;75.40
3001;DHT22;1510;51.072;6.678;2023-04-28T14:21:37;21.10;71.10
3001;DHT22;1510;51.072;6.678;2023-04-28T14:24:04;21.40;74.30
3001;DHT22;1510;51.072;6.678;2023-04-28T14:26:31;21.40;76.50
3001;DHT22;1510;51.072;6.678;2023-04-28T14:28:59;22.00;71.50
3001;DHT22;1510;51.072;6.678;2023-04-28T14:31:26;22.60;69.20
3001;DHT22;1510;51.072;6.678;2023-04-28T14:33:53;22.90;64.50
3001;DHT22;1510;51.072;6.678;2023-04-28T14:36:20;22.70;64.30
3001;DHT22;1510;51.072;6.678;2023-04-28T14:38:47;22.80;67.00
3001;DHT22;1510;51.072;6.678;2023-04-28T14:41:14;22.90;64.50
3001;DHT22;1510;51.072;6.678;2023-04-28T14:43:41;23.40;65.00
3001;DHT22;1510;51.072;6.678;2023-04-28T14:46:09;23.10;58.30
3001;DHT22;1510;51.072;6.678;2023-04-28T14:48:37;22.10;66.40
3001;DHT22;1510;51.072;6.678;2023-04-28T14:51:03;21.40;70.10
3001;DHT22;1510;51.072;6.678;2023-04-28T14:53:30;20.80;70.90
3001;DHT22;1510;51.072;6.678;2023-04-28T14:55:57;20.40;76.30
3001;DHT22;1510;51.072;6.678;2023-04-28T14:58:24;20.80;77.60
3001;DHT22;1510;51.072;6.678;2023-04-28T15:00:51;21.40;74.30
3001;DHT22;1510;51.072;6.678;2023-04-28T15:03:19;21.90;71.80
3001;DHT22;1510;51.072;6.678;2023-04-28T15:05:46;20.80;72.40
3001;DHT22;1510;51.072;6.678;2023-04-28T15:08:13;20.50;71.80
3001;DHT22;1510;51.072;6.678;2023-04-28T15:10:40;20.70;73.60
3001;DHT22;1510;51.072;6.678;2023-04-28T15:13:07;20.90;72.90
3001;DHT22;1510;51.072;6.678;2023-04-28T15:15:34;21.70;71.60
3001;DHT22;1510;51.072;6.678;2023-04-28T15:18:01;21.00;74.60
3001;DHT22;1510;51.072;6.678;2023-04-28T15:20:32;20.10;75.00
3001;DHT22;1510;51.072;6.678;2023-04-28T15:23:01;19.90;79.60
3001;DHT22;1510;51.072;6.678;2023-04-28T15:25:28;20.40;73.40
3001;DHT22;1510;51.072;6.678;2023-04-28T15:27:55;20.80;70.80
3001;DHT22;1510;51.072;6.678;2023-04-28T15:30:22;20.30;70.40
3001;DHT22;1510;51.072;6.678;2023-04-28T15:32:49;19.50;75.80
3001;DHT22;1510;51.072;6.678;2023-04-28T15:35:16;19.90;75.70
3001;DHT22;1510;51.072;6.678;2023-04-28T15:37:45;19.60;77.80
3001;DHT22;1510;51.072;6.678;2023-04-28T15:40:14;19.30;82.20
3001;DHT22;1510;51.072;6.678;2023-04-28T15:42:42;19.20;77.50
3001;DHT22;1510;51.072;6.678;2023-04-28T15:45:13;19.10;77.30
3001;DHT22;1510;51.072;6.678;2023-04-28T15:47:42;18.40;81.30
3001;DHT22;1510;51.072;6.678;2023-04-28T15:50:10;17.90;84.20
3001;DHT22;1510;51.072;6.678;2023-04-28T15:52:38;17.60;83.90
3001;DHT22;1510;51.072;6.678;2023-04-28T15:55:11;17.40;86.00
3001;DHT22;1510;51.072;6.678;2023-04-28T15:57:39;17.30;82.70
3001;DHT22;1510;51.072;6.678;2023-04-28T16:00:07;17.30;82.90
3001;DHT22;1510;51.072;6.678;2023-04-28T16:02:34;17.20;84.40
3001;DHT22;1510;51.072;6.678;2023-04-28T16:05:01;17.10;85.90
3001;DHT22;1510;51.072;6.678;2023-04-28T16:07:29;17.00;83.60
3001;DHT22;1510;51.072;6.678;2023-04-28T16:10:02;17.10;83.40
3001;DHT22;1510;51.072;6.678;2023-04-28T16:12:30;17.30;83.60
3001;DHT22;1510;51.072;6.678;2023-04-28T16:14:58;17.00;85.00
3001;DHT22;1510;51.072;6.678;2023-04-28T16:17:25;16.80;83.20
3001;DHT22;1510;51.072;6.678;2023-04-28T16:19:53;16.70;86.50
3001;DHT22;1510;51.072;6.678;2023-04-28T16:22:20;16.50;86.00
3001;DHT22;1510;51.072;6.678;2023-04-28T16:24:47;16.40;88.90
3001;DHT22;1510;51.072;6.678;2023-04-28T16:27:14;16.50;88.30
3001;DHT22;1510;51.072;6.678;2023-04-28T16:29:42;16.60;87.40
3001;DHT22;1510;51.072;6.678;2023-04-28T16:32:10;16.60;88.40
3001;DHT22;1510;51.072;6.678;2023-04-28T16:34:37;16.50;89.00
3001;DHT22;1510;51.072;6.678;2023-04-28T16:37:05;16.40;90.60
3001;DHT22;1510;51.072;6.678;2023-04-28T16:39:32;16.20;90.70
3001;DHT22;1510;51.072;6.678;2023-04-28T16:41:59;16.20;91.90
3001;DHT22;1510;51.072;6.678;2023-04-28T16:44:26;16.30;90.50
3001;DHT22;1510;51.072;6.678;2023-04-28T16:46:55;16.40;91.20
3001;DHT22;1510;51.072;6.678;2023-04-28T16:49:22;16.40;90.90
3001;DHT22;1510;51.072;6.678;2023-04-28T16:51:55;16.20;90.70
3001;DHT22;1510;51.072;6.678;2023-04-28T16:54:23;16.10;91.80
3001;DHT22;1510;51.072;6.678;2023-04-28T16:56:50;16.00;91.40
3001;DHT22;1510;51.072;6.678;2023-04-28T16:59:17;15.90;92.90
3001;DHT22;1510;51.072;6.678;2023-04-28T17:01:44;15.90;92.90